Advance Mills, Virginia
Current Conditions -  °F | °C
As of 12:53 PM on Friday 28 Nov 2014 (Local Time) from KCHO Reporting Station
Clear Clear  
Wind Chill: 33°   Ceiling: Unl
Heat Index: 38°   Visibility: 10mi
Dew Point: 16°   Wind: 7mph
Humidity: 41%   Direction: 320°NW
Pressure: 30.28"   Gusts: NA
Location:  38.2469°N, 78.3926°W
Report Text: KCHO 281753Z 32006KT 10SM CLR 03/M09 A3028 RMK AO2 SLP255 T00331089 10033 21006 58017
Loading
Personal Weather Stations






























Interactive Weather Map New forecast layout! Learn more

10-Day Weather Forecast

Advertisements
Track Severe Weather on mobile